sensor_id;sensor_type;location;lat;lon;timestamp;temperature;humidity
262;DHT22;114;48.260;10.988;2022-08-07T00:00:51;14.90;99.90
262;DHT22;114;48.260;10.988;2022-08-07T00:03:17;14.90;99.90
262;DHT22;114;48.260;10.988;2022-08-07T00:05:42;14.90;99.90
262;DHT22;114;48.260;10.988;2022-08-07T00:08:11;14.90;99.90
262;DHT22;114;48.260;10.988;2022-08-07T00:10:37;15.00;99.90
262;DHT22;114;48.260;10.988;2022-08-07T00:13:04;15.00;99.90
262;DHT22;114;48.260;10.988;2022-08-07T00:15:31;15.00;99.90
262;DHT22;114;48.260;10.988;2022-08-07T00:17:57;15.10;99.90
262;DHT22;114;48.260;10.988;2022-08-07T00:20:23;15.10;99.90
262;DHT22;114;48.260;10.988;2022-08-07T00:22:49;15.20;99.90
262;DHT22;114;48.260;10.988;2022-08-07T00:25:18;15.20;99.90
262;DHT22;114;48.260;10.988;2022-08-07T00:27:44;15.30;99.90
262;DHT22;114;48.260;10.988;2022-08-07T00:30:10;15.30;99.90
262;DHT22;114;48.260;10.988;2022-08-07T00:32:36;15.30;99.90
262;DHT22;114;48.260;10.988;2022-08-07T00:35:02;15.40;99.90
262;DHT22;114;48.260;10.988;2022-08-07T00:37:28;15.40;99.90
262;DHT22;114;48.260;10.988;2022-08-07T00:39:54;15.50;99.90
262;DHT22;114;48.260;10.988;2022-08-07T00:42:21;15.50;99.90
262;DHT22;114;48.260;10.988;2022-08-07T00:44:46;15.50;99.90
262;DHT22;114;48.260;10.988;2022-08-07T00:47:16;15.60;99.90
262;DHT22;114;48.260;10.988;2022-08-07T00:49:48;15.60;99.90
262;DHT22;114;48.260;10.988;2022-08-07T00:52:14;15.60;99.90
262;DHT22;114;48.260;10.988;2022-08-07T00:54:39;15.60;99.90
262;DHT22;114;48.260;10.988;2022-08-07T00:57:07;15.60;99.90
262;DHT22;114;48.260;10.988;2022-08-07T00:59:36;15.60;99.90
262;DHT22;114;48.260;10.988;2022-08-07T01:02:06;15.60;99.90
262;DHT22;114;48.260;10.988;2022-08-07T01:04:32;15.60;99.90
262;DHT22;114;48.260;10.988;2022-08-07T01:06:58;15.60;99.90
262;DHT22;114;48.260;10.988;2022-08-07T01:09:25;15.60;99.90
262;DHT22;114;48.260;10.988;2022-08-07T01:11:51;15.60;99.90
262;DHT22;114;48.260;10.988;2022-08-07T01:14:19;15.50;99.90
262;DHT22;114;48.260;10.988;2022-08-07T01:16:45;15.50;99.90
262;DHT22;114;48.260;10.988;2022-08-07T01:19:12;15.50;99.90
262;DHT22;114;48.260;10.988;2022-08-07T01:21:38;15.50;99.90
262;DHT22;114;48.260;10.988;2022-08-07T01:24:05;15.50;99.90
262;DHT22;114;48.260;10.988;2022-08-07T01:26:31;15.50;99.90
262;DHT22;114;48.260;10.988;2022-08-07T01:28:58;15.50;99.90
262;DHT22;114;48.260;10.988;2022-08-07T01:31:25;15.50;99.90
262;DHT22;114;48.260;10.988;2022-08-07T01:33:57;15.50;99.90
262;DHT22;114;48.260;10.988;2022-08-07T01:36:24;15.40;99.90
262;DHT22;114;48.260;10.988;2022-08-07T01:38:51;15.40;99.90
262;DHT22;114;48.260;10.988;2022-08-07T01:41:18;15.40;99.90
262;DHT22;114;48.260;10.988;2022-08-07T01:43:45;15.30;99.90
262;DHT22;114;48.260;10.988;2022-08-07T01:46:12;15.40;99.90
262;DHT22;114;48.260;10.988;2022-08-07T01:48:43;15.40;99.90
262;DHT22;114;48.260;10.988;2022-08-07T01:51:21;15.30;99.90
262;DHT22;114;48.260;10.988;2022-08-07T01:53:54;15.30;99.90
262;DHT22;114;48.260;10.988;2022-08-07T01:57:02;15.30;99.90
262;DHT22;114;48.260;10.988;2022-08-07T01:59:41;15.30;99.90
262;DHT22;114;48.260;10.988;2022-08-07T02:02:21;15.20;99.90
262;DHT22;114;48.260;10.988;2022-08-07T02:05:01;15.20;99.90
262;DHT22;114;48.260;10.988;2022-08-07T02:07:31;15.10;99.90
262;DHT22;114;48.260;10.988;2022-08-07T02:09:59;15.10;99.90
262;DHT22;114;48.260;10.988;2022-08-07T02:12:27;15.10;99.90
262;DHT22;114;48.260;10.988;2022-08-07T02:14:57;15.10;99.90
262;DHT22;114;48.260;10.988;2022-08-07T02:17:25;15.10;99.90
262;DHT22;114;48.260;10.988;2022-08-07T02:19:53;15.10;99.90
262;DHT22;114;48.260;10.988;2022-08-07T02:22:20;15.00;99.90
262;DHT22;114;48.260;10.988;2022-08-07T02:24:49;15.00;99.90
262;DHT22;114;48.260;10.988;2022-08-07T02:27:19;15.10;99.90
262;DHT22;114;48.260;10.988;2022-08-07T02:29:47;15.00;99.90
262;DHT22;114;48.260;10.988;2022-08-07T02:32:15;15.00;99.90
262;DHT22;114;48.260;10.988;2022-08-07T02:34:43;15.00;99.90
262;DHT22;114;48.260;10.988;2022-08-07T02:37:11;15.00;99.90
262;DHT22;114;48.260;10.988;2022-08-07T02:39:39;15.00;99.90
262;DHT22;114;48.260;10.988;2022-08-07T02:42:08;15.00;99.90
262;DHT22;114;48.260;10.988;2022-08-07T02:44:34;15.00;99.90
262;DHT22;114;48.260;10.988;2022-08-07T02:47:02;14.90;99.90
262;DHT22;114;48.260;10.988;2022-08-07T02:49:28;15.00;99.90
262;DHT22;114;48.260;10.988;2022-08-07T02:51:56;14.90;99.90
262;DHT22;114;48.260;10.988;2022-08-07T02:54:26;14.90;99.90
262;DHT22;114;48.260;10.988;2022-08-07T02:56:55;14.90;99.90
262;DHT22;114;48.260;10.988;2022-08-07T02:59:25;14.90;99.90
262;DHT22;114;48.260;10.988;2022-08-07T03:01:52;14.90;99.90
262;DHT22;114;48.260;10.988;2022-08-07T03:04:19;14.80;99.90
262;DHT22;114;48.260;10.988;2022-08-07T03:06:47;14.80;99.90
262;DHT22;114;48.260;10.988;2022-08-07T03:09:13;14.70;99.90
262;DHT22;114;48.260;10.988;2022-08-07T03:11:40;14.80;99.90
262;DHT22;114;48.260;10.988;2022-08-07T03:14:07;14.80;99.90
262;DHT22;114;48.260;10.988;2022-08-07T03:16:35;14.70;99.90
262;DHT22;114;48.260;10.988;2022-08-07T03:19:02;14.70;99.90
262;DHT22;114;48.260;10.988;2022-08-07T03:21:28;14.60;99.90
262;DHT22;114;48.260;10.988;2022-08-07T03:23:57;14.60;99.90
262;DHT22;114;48.260;10.988;2022-08-07T03:26:25;14.60;99.90
262;DHT22;114;48.260;10.988;2022-08-07T03:28:54;14.60;99.90
262;DHT22;114;48.260;10.988;2022-08-07T03:31:21;14.60;99.90
262;DHT22;114;48.260;10.988;2022-08-07T03:33:50;14.60;99.90
262;DHT22;114;48.260;10.988;2022-08-07T03:36:19;14.60;99.90
262;DHT22;114;48.260;10.988;2022-08-07T03:38:47;14.60;99.90
262;DHT22;114;48.260;10.988;2022-08-07T03:41:16;14.60;99.90
262;DHT22;114;48.260;10.988;2022-08-07T03:43:42;14.60;99.90
262;DHT22;114;48.260;10.988;2022-08-07T03:46:09;14.60;99.90
262;DHT22;114;48.260;10.988;2022-08-07T03:48:36;14.60;99.90
262;DHT22;114;48.260;10.988;2022-08-07T03:51:03;14.60;99.90
262;DHT22;114;48.260;10.988;2022-08-07T03:53:29;14.60;99.90
262;DHT22;114;48.260;10.988;2022-08-07T03:55:56;14.60;99.90
262;DHT22;114;48.260;10.988;2022-08-07T03:58:23;14.50;99.90
262;DHT22;114;48.260;10.988;2022-08-07T04:00:52;14.60;99.90
262;DHT22;114;48.260;10.988;2022-08-07T04:03:19;14.50;99.90
262;DHT22;114;48.260;10.988;2022-08-07T04:05:45;14.50;99.90
262;DHT22;114;48.260;10.988;2022-08-07T04:08:12;14.50;99.90
262;DHT22;114;48.260;10.988;2022-08-07T04:10:40;14.50;99.90
262;DHT22;114;48.260;10.988;2022-08-07T04:13:06;14.50;99.90
262;DHT22;114;48.260;10.988;2022-08-07T04:15:33;14.50;99.90
262;DHT22;114;48.260;10.988;2022-08-07T04:18:00;14.50;99.90
262;DHT22;114;48.260;10.988;2022-08-07T04:20:26;14.50;99.90
262;DHT22;114;48.260;10.988;2022-08-07T04:22:53;14.50;99.90
262;DHT22;114;48.260;10.988;2022-08-07T04:25:21;14.50;99.90
262;DHT22;114;48.260;10.988;2022-08-07T04:27:48;14.50;99.90
262;DHT22;114;48.260;10.988;2022-08-07T04:30:14;14.50;99.90
262;DHT22;114;48.260;10.988;2022-08-07T04:32:40;14.50;99.90
262;DHT22;114;48.260;10.988;2022-08-07T04:35:07;14.50;99.90
262;DHT22;114;48.260;10.988;2022-08-07T04:37:34;14.50;99.90
262;DHT22;114;48.260;10.988;2022-08-07T04:40:01;14.50;99.90
262;DHT22;114;48.260;10.988;2022-08-07T04:42:28;14.50;99.90
262;DHT22;114;48.260;10.988;2022-08-07T04:44:57;14.50;99.90
262;DHT22;114;48.260;10.988;2022-08-07T04:47:38;14.50;99.90
262;DHT22;114;48.260;10.988;2022-08-07T04:53:01;14.50;99.90
262;DHT22;114;48.260;10.988;2022-08-07T04:55:50;14.60;99.90
262;DHT22;114;48.260;10.988;2022-08-07T04:58:30;14.70;99.90
262;DHT22;114;48.260;10.988;2022-08-07T05:01:36;14.80;99.90
262;DHT22;114;48.260;10.988;2022-08-07T05:07:16;14.90;98.40
262;DHT22;114;48.260;10.988;2022-08-07T05:10:23;14.90;96.40
262;DHT22;114;48.260;10.988;2022-08-07T05:13:00;15.00;94.50
262;DHT22;114;48.260;10.988;2022-08-07T05:15:33;15.10;93.20
262;DHT22;114;48.260;10.988;2022-08-07T05:18:12;15.20;92.30
262;DHT22;114;48.260;10.988;2022-08-07T05:20:45;15.20;90.80
262;DHT22;114;48.260;10.988;2022-08-07T05:23:17;15.30;90.20
262;DHT22;114;48.260;10.988;2022-08-07T05:25:44;15.30;87.80
262;DHT22;114;48.260;10.988;2022-08-07T05:28:12;15.30;84.30
262;DHT22;114;48.260;10.988;2022-08-07T05:30:40;15.30;83.60
262;DHT22;114;48.260;10.988;2022-08-07T05:33:07;15.30;84.90
262;DHT22;114;48.260;10.988;2022-08-07T05:35:35;15.30;79.60
262;DHT22;114;48.260;10.988;2022-08-07T05:38:03;15.40;77.40
262;DHT22;114;48.260;10.988;2022-08-07T05:40:32;15.40;72.20
262;DHT22;114;48.260;10.988;2022-08-07T05:42:58;15.50;71.70
262;DHT22;114;48.260;10.988;2022-08-07T05:45:25;15.70;69.30
262;DHT22;114;48.260;10.988;2022-08-07T05:47:52;15.70;65.60
262;DHT22;114;48.260;10.988;2022-08-07T05:50:20;15.80;57.30
262;DHT22;114;48.260;10.988;2022-08-07T05:52:50;16.00;54.40
262;DHT22;114;48.260;10.988;2022-08-07T05:55:16;16.20;50.40
262;DHT22;114;48.260;10.988;2022-08-07T05:57:44;16.20;47.10
262;DHT22;114;48.260;10.988;2022-08-07T06:00:11;16.40;47.20
262;DHT22;114;48.260;10.988;2022-08-07T06:02:40;16.50;38.00
262;DHT22;114;48.260;10.988;2022-08-07T06:05:11;16.60;37.50
262;DHT22;114;48.260;10.988;2022-08-07T06:07:38;16.70;34.40
262;DHT22;114;48.260;10.988;2022-08-07T06:10:05;16.70;30.20
262;DHT22;114;48.260;10.988;2022-08-07T06:12:33;16.80;26.80
262;DHT22;114;48.260;10.988;2022-08-07T06:15:01;16.90;21.10
262;DHT22;114;48.260;10.988;2022-08-07T06:17:27;17.00;18.20
262;DHT22;114;48.260;10.988;2022-08-07T06:19:55;17.20;13.10
262;DHT22;114;48.260;10.988;2022-08-07T06:22:22;17.30;12.10
262;DHT22;114;48.260;10.988;2022-08-07T06:24:49;17.40;11.80
262;DHT22;114;48.260;10.988;2022-08-07T06:27:26;17.50;6.30
262;DHT22;114;48.260;10.988;2022-08-07T06:29:52;17.50;2.50
262;DHT22;114;48.260;10.988;2022-08-07T06:32:18;17.50;3.70
262;DHT22;114;48.260;10.988;2022-08-07T06:34:44;17.50;2.40
262;DHT22;114;48.260;10.988;2022-08-07T06:37:10;17.50;2.00
262;DHT22;114;48.260;10.988;2022-08-07T06:39:35;17.40;2.00
262;DHT22;114;48.260;10.988;2022-08-07T06:42:07;17.60;1.30
262;DHT22;114;48.260;10.988;2022-08-07T06:44:34;17.60;1.40
262;DHT22;114;48.260;10.988;2022-08-07T06:47:01;17.70;1.00
262;DHT22;114;48.260;10.988;2022-08-07T06:49:27;17.80;3.30
262;DHT22;114;48.260;10.988;2022-08-07T06:51:54;18.00;2.40
262;DHT22;114;48.260;10.988;2022-08-07T06:54:24;18.10;1.00
262;DHT22;114;48.260;10.988;2022-08-07T06:56:54;18.10;1.00
262;DHT22;114;48.260;10.988;2022-08-07T06:59:26;18.00;1.00
262;DHT22;114;48.260;10.988;2022-08-07T07:01:52;18.00;1.00
262;DHT22;114;48.260;10.988;2022-08-07T07:04:18;18.00;1.00
262;DHT22;114;48.260;10.988;2022-08-07T07:06:45;18.00;1.00
262;DHT22;114;48.260;10.988;2022-08-07T07:09:25;18.10;1.00
262;DHT22;114;48.260;10.988;2022-08-07T07:14:25;18.50;1.00
262;DHT22;114;48.260;10.988;2022-08-07T07:16:55;18.60;1.00
262;DHT22;114;48.260;10.988;2022-08-07T07:19:29;18.70;1.00
262;DHT22;114;48.260;10.988;2022-08-07T07:21:58;18.60;1.00
262;DHT22;114;48.260;10.988;2022-08-07T07:24:25;18.70;1.00
262;DHT22;114;48.260;10.988;2022-08-07T07:26:52;18.90;1.00
262;DHT22;114;48.260;10.988;2022-08-07T07:29:26;19.20;1.00
262;DHT22;114;48.260;10.988;2022-08-07T07:31:56;19.30;1.00
262;DHT22;114;48.260;10.988;2022-08-07T07:34:28;19.40;1.00
262;DHT22;114;48.260;10.988;2022-08-07T07:36:59;19.50;1.00
262;DHT22;114;48.260;10.988;2022-08-07T07:39:27;19.60;1.00
262;DHT22;114;48.260;10.988;2022-08-07T07:41:55;19.50;1.00
262;DHT22;114;48.260;10.988;2022-08-07T07:44:22;19.40;1.00
262;DHT22;114;48.260;10.988;2022-08-07T07:46:52;19.20;1.00
262;DHT22;114;48.260;10.988;2022-08-07T07:49:19;19.00;1.00
262;DHT22;114;48.260;10.988;2022-08-07T07:51:47;18.90;1.00
262;DHT22;114;48.260;10.988;2022-08-07T07:54:16;18.90;1.00
262;DHT22;114;48.260;10.988;2022-08-07T07:56:45;18.90;1.00
262;DHT22;114;48.260;10.988;2022-08-07T07:59:13;19.00;1.00
262;DHT22;114;48.260;10.988;2022-08-07T08:01:42;18.90;1.00
262;DHT22;114;48.260;10.988;2022-08-07T08:04:11;18.70;1.00
262;DHT22;114;48.260;10.988;2022-08-07T08:06:41;18.80;1.00
262;DHT22;114;48.260;10.988;2022-08-07T08:09:07;18.80;1.00
262;DHT22;114;48.260;10.988;2022-08-07T08:11:34;18.80;1.00
262;DHT22;114;48.260;10.988;2022-08-07T08:14:02;18.70;1.00
262;DHT22;114;48.260;10.988;2022-08-07T08:16:41;18.80;1.00
262;DHT22;114;48.260;10.988;2022-08-07T08:19:11;18.80;1.00
262;DHT22;114;48.260;10.988;2022-08-07T08:21:41;18.80;1.00
262;DHT22;114;48.260;10.988;2022-08-07T08:24:30;18.90;1.00
262;DHT22;114;48.260;10.988;2022-08-07T08:27:17;19.20;1.00
262;DHT22;114;48.260;10.988;2022-08-07T08:29:50;19.30;1.00
262;DHT22;114;48.260;10.988;2022-08-07T08:32:19;19.50;1.00
262;DHT22;114;48.260;10.988;2022-08-07T08:34:47;19.50;1.00
262;DHT22;114;48.260;10.988;2022-08-07T08:37:16;19.30;1.00
262;DHT22;114;48.260;10.988;2022-08-07T08:39:44;19.40;1.00
262;DHT22;114;48.260;10.988;2022-08-07T08:53:01;19.80;1.00
262;DHT22;114;48.260;10.988;2022-08-07T09:00:56;20.50;1.00
262;DHT22;114;48.260;10.988;2022-08-07T09:03:33;20.70;1.00
262;DHT22;114;48.260;10.988;2022-08-07T09:06:07;20.80;1.00
262;DHT22;114;48.260;10.988;2022-08-07T09:08:43;20.80;1.00
262;DHT22;114;48.260;10.988;2022-08-07T09:11:22;20.80;1.00
262;DHT22;114;48.260;10.988;2022-08-07T09:14:10;20.80;1.00
262;DHT22;114;48.260;10.988;2022-08-07T09:19:44;21.00;1.00
262;DHT22;114;48.260;10.988;2022-08-07T09:22:20;21.30;1.00
262;DHT22;114;48.260;10.988;2022-08-07T09:25:15;21.30;1.00
262;DHT22;114;48.260;10.988;2022-08-07T09:28:05;21.10;1.00
262;DHT22;114;48.260;10.988;2022-08-07T09:30:59;21.40;1.00
262;DHT22;114;48.260;10.988;2022-08-07T09:33:51;21.70;1.00
262;DHT22;114;48.260;10.988;2022-08-07T09:36:31;21.60;1.00
262;DHT22;114;48.260;10.988;2022-08-07T09:41:37;21.60;1.00
262;DHT22;114;48.260;10.988;2022-08-07T09:44:17;21.80;1.00
262;DHT22;114;48.260;10.988;2022-08-07T09:47:16;21.70;1.00
262;DHT22;114;48.260;10.988;2022-08-07T09:52:46;22.10;1.00
262;DHT22;114;48.260;10.988;2022-08-07T09:55:57;22.40;1.00
262;DHT22;114;48.260;10.988;2022-08-07T10:13:02;23.10;1.00
262;DHT22;114;48.260;10.988;2022-08-07T10:15:48;23.20;1.00
262;DHT22;114;48.260;10.988;2022-08-07T10:19:39;23.60;1.00
262;DHT22;114;48.260;10.988;2022-08-07T10:30:42;23.40;1.00
262;DHT22;114;48.260;10.988;2022-08-07T10:33:46;23.70;1.00
262;DHT22;114;48.260;10.988;2022-08-07T10:41:43;24.90;1.00
262;DHT22;114;48.260;10.988;2022-08-07T10:49:43;24.80;1.00
262;DHT22;114;48.260;10.988;2022-08-07T10:55:06;24.60;1.00
262;DHT22;114;48.260;10.988;2022-08-07T11:00:28;24.90;1.00
262;DHT22;114;48.260;10.988;2022-08-07T11:03:01;24.70;1.00
262;DHT22;114;48.260;10.988;2022-08-07T11:08:31;25.20;1.00
262;DHT22;114;48.260;10.988;2022-08-07T11:11:23;25.40;1.00
262;DHT22;114;48.260;10.988;2022-08-07T11:13:58;25.60;1.00
262;DHT22;114;48.260;10.988;2022-08-07T11:16:38;25.60;1.00
262;DHT22;114;48.260;10.988;2022-08-07T11:24:48;26.00;1.00
262;DHT22;114;48.260;10.988;2022-08-07T11:30:18;27.10;1.00
262;DHT22;114;48.260;10.988;2022-08-07T11:33:13;27.50;1.00
262;DHT22;114;48.260;10.988;2022-08-07T11:39:12;28.20;1.00
262;DHT22;114;48.260;10.988;2022-08-07T11:41:54;28.20;1.00
262;DHT22;114;48.260;10.988;2022-08-07T11:45:06;28.00;1.00
262;DHT22;114;48.260;10.988;2022-08-07T11:50:43;27.60;1.00
262;DHT22;114;48.260;10.988;2022-08-07T11:53:45;27.90;1.00
262;DHT22;114;48.260;10.988;2022-08-07T12:07:42;28.30;1.00
262;DHT22;114;48.260;10.988;2022-08-07T12:10:21;28.80;1.00
262;DHT22;114;48.260;10.988;2022-08-07T12:12:56;29.30;1.00
262;DHT22;114;48.260;10.988;2022-08-07T12:15:31;30.00;1.00
262;DHT22;114;48.260;10.988;2022-08-07T12:18:26;31.60;1.00
262;DHT22;114;48.260;10.988;2022-08-07T12:21:04;33.00;1.00
262;DHT22;114;48.260;10.988;2022-08-07T12:24:06;33.30;1.00
262;DHT22;114;48.260;10.988;2022-08-07T12:26:42;34.10;1.00
262;DHT22;114;48.260;10.988;2022-08-07T12:29:27;33.40;1.00
262;DHT22;114;48.260;10.988;2022-08-07T12:34:27;32.80;1.00
262;DHT22;114;48.260;10.988;2022-08-07T12:36:55;32.30;1.00
262;DHT22;114;48.260;10.988;2022-08-07T12:39:22;32.00;1.00
262;DHT22;114;48.260;10.988;2022-08-07T12:41:51;32.60;1.00
262;DHT22;114;48.260;10.988;2022-08-07T12:44:18;33.40;1.00
262;DHT22;114;48.260;10.988;2022-08-07T12:49:47;32.40;1.00
262;DHT22;114;48.260;10.988;2022-08-07T12:52:20;33.10;1.00
262;DHT22;114;48.260;10.988;2022-08-07T12:57:48;34.60;1.00
262;DHT22;114;48.260;10.988;2022-08-07T13:00:15;35.20;1.00
262;DHT22;114;48.260;10.988;2022-08-07T13:05:54;33.40;1.00
262;DHT22;114;48.260;10.988;2022-08-07T13:14:50;33.50;1.00
262;DHT22;114;48.260;10.988;2022-08-07T13:17:45;34.10;1.00
262;DHT22;114;48.260;10.988;2022-08-07T13:20:39;34.00;1.00
262;DHT22;114;48.260;10.988;2022-08-07T13:23:19;34.10;1.00
262;DHT22;114;48.260;10.988;2022-08-07T13:26:25;34.40;1.00
262;DHT22;114;48.260;10.988;2022-08-07T13:31:44;34.80;1.00
262;DHT22;114;48.260;10.988;2022-08-07T13:34:20;35.10;1.00
262;DHT22;114;48.260;10.988;2022-08-07T13:36:58;35.00;1.00
262;DHT22;114;48.260;10.988;2022-08-07T13:42:35;35.40;1.00
262;DHT22;114;48.260;10.988;2022-08-07T13:45:05;35.10;1.00
262;DHT22;114;48.260;10.988;2022-08-07T13:47:34;35.00;1.00
262;DHT22;114;48.260;10.988;2022-08-07T13:50:05;34.90;1.00
262;DHT22;114;48.260;10.988;2022-08-07T13:52:32;34.50;1.00
262;DHT22;114;48.260;10.988;2022-08-07T13:55:10;34.70;1.00
262;DHT22;114;48.260;10.988;2022-08-07T13:57:39;33.60;1.00
262;DHT22;114;48.260;10.988;2022-08-07T14:00:08;33.30;1.00
262;DHT22;114;48.260;10.988;2022-08-07T14:02:37;34.00;1.00
262;DHT22;114;48.260;10.988;2022-08-07T14:05:11;33.90;1.00
262;DHT22;114;48.260;10.988;2022-08-07T14:07:44;33.70;1.00
262;DHT22;114;48.260;10.988;2022-08-07T14:10:11;32.50;1.00
262;DHT22;114;48.260;10.988;2022-08-07T14:12:45;32.50;1.00
262;DHT22;114;48.260;10.988;2022-08-07T14:15:42;32.10;1.00
262;DHT22;114;48.260;10.988;2022-08-07T14:18:47;32.20;1.00
262;DHT22;114;48.260;10.988;2022-08-07T14:21:31;32.40;1.00
262;DHT22;114;48.260;10.988;2022-08-07T14:24:14;32.30;1.00
262;DHT22;114;48.260;10.988;2022-08-07T14:27:05;32.00;1.00
262;DHT22;114;48.260;10.988;2022-08-07T14:29:36;31.90;1.00
262;DHT22;114;48.260;10.988;2022-08-07T14:32:06;31.40;1.00
262;DHT22;114;48.260;10.988;2022-08-07T14:34:35;31.90;1.00
262;DHT22;114;48.260;10.988;2022-08-07T14:37:09;31.90;1.00
262;DHT22;114;48.260;10.988;2022-08-07T14:39:40;31.80;1.00
262;DHT22;114;48.260;10.988;2022-08-07T14:42:10;31.10;1.00
262;DHT22;114;48.260;10.988;2022-08-07T14:44:50;31.20;1.00
262;DHT22;114;48.260;10.988;2022-08-07T14:47:17;30.80;1.00
262;DHT22;114;48.260;10.988;2022-08-07T14:49:44;31.20;1.00
262;DHT22;114;48.260;10.988;2022-08-07T14:52:11;31.50;1.00
262;DHT22;114;48.260;10.988;2022-08-07T14:54:39;31.00;1.00
262;DHT22;114;48.260;10.988;2022-08-07T14:57:08;31.50;1.00
262;DHT22;114;48.260;10.988;2022-08-07T14:59:36;31.00;1.00
262;DHT22;114;48.260;10.988;2022-08-07T15:02:14;31.20;1.00
262;DHT22;114;48.260;10.988;2022-08-07T15:04:44;31.00;1.00
262;DHT22;114;48.260;10.988;2022-08-07T15:07:16;31.40;1.00
262;DHT22;114;48.260;10.988;2022-08-07T15:09:42;31.60;1.00
262;DHT22;114;48.260;10.988;2022-08-07T15:12:12;31.40;1.00
262;DHT22;114;48.260;10.988;2022-08-07T15:14:56;30.90;1.00
262;DHT22;114;48.260;10.988;2022-08-07T15:17:32;30.70;1.00
262;DHT22;114;48.260;10.988;2022-08-07T15:20:05;30.50;1.00
262;DHT22;114;48.260;10.988;2022-08-07T15:22:45;29.60;1.00
262;DHT22;114;48.260;10.988;2022-08-07T15:25:14;29.10;1.00
262;DHT22;114;48.260;10.988;2022-08-07T15:27:43;28.80;1.00
262;DHT22;114;48.260;10.988;2022-08-07T15:30:11;29.10;1.00
262;DHT22;114;48.260;10.988;2022-08-07T15:32:43;28.70;1.00
262;DHT22;114;48.260;10.988;2022-08-07T15:35:17;29.30;1.00
262;DHT22;114;48.260;10.988;2022-08-07T15:37:50;29.00;1.00
262;DHT22;114;48.260;10.988;2022-08-07T15:40:17;28.90;1.00
262;DHT22;114;48.260;10.988;2022-08-07T15:50:42;27.60;1.00
262;DHT22;114;48.260;10.988;2022-08-07T15:53:11;27.60;1.00
262;DHT22;114;48.260;10.988;2022-08-07T15:55:46;27.30;1.00
262;DHT22;114;48.260;10.988;2022-08-07T15:58:17;27.00;1.00
262;DHT22;114;48.260;10.988;2022-08-07T16:00:48;26.70;1.00
262;DHT22;114;48.260;10.988;2022-08-07T16:03:17;26.50;1.00
262;DHT22;114;48.260;10.988;2022-08-07T16:05:46;26.50;1.00
262;DHT22;114;48.260;10.988;2022-08-07T16:08:15;26.40;1.00
262;DHT22;114;48.260;10.988;2022-08-07T16:10:45;26.00;1.00
262;DHT22;114;48.260;10.988;2022-08-07T16:18:46;26.10;1.00
262;DHT22;114;48.260;10.988;2022-08-07T16:21:46;26.10;1.00
262;DHT22;114;48.260;10.988;2022-08-07T16:24:27;25.90;1.00
262;DHT22;114;48.260;10.988;2022-08-07T16:30:13;25.60;1.00
262;DHT22;114;48.260;10.988;2022-08-07T16:32:51;25.40;1.00
262;DHT22;114;48.260;10.988;2022-08-07T16:35:30;25.40;1.00
262;DHT22;114;48.260;10.988;2022-08-07T16:38:26;25.40;1.00
262;DHT22;114;48.260;10.988;2022-08-07T16:55:29;24.70;1.00
262;DHT22;114;48.260;10.988;2022-08-07T17:00:43;24.50;1.00
262;DHT22;114;48.260;10.988;2022-08-07T17:03:33;24.30;1.00
262;DHT22;114;48.260;10.988;2022-08-07T17:06:11;24.20;1.00
262;DHT22;114;48.260;10.988;2022-08-07T17:09:10;24.10;1.00
262;DHT22;114;48.260;10.988;2022-08-07T17:12:00;23.90;1.00
262;DHT22;114;48.260;10.988;2022-08-07T17:14:45;23.80;1.00
262;DHT22;114;48.260;10.988;2022-08-07T17:26:31;23.40;1.00
262;DHT22;114;48.260;10.988;2022-08-07T17:31:17;23.40;1.00
262;DHT22;114;48.260;10.988;2022-08-07T17:33:52;23.30;1.00
262;DHT22;114;48.260;10.988;2022-08-07T17:36:25;23.20;1.00
262;DHT22;114;48.260;10.988;2022-08-07T17:41:56;23.10;1.00
262;DHT22;114;48.260;10.988;2022-08-07T17:44:47;23.00;1.00
262;DHT22;114;48.260;10.988;2022-08-07T17:49:57;23.00;1.00
262;DHT22;114;48.260;10.988;2022-08-07T17:52:33;22.90;1.00
262;DHT22;114;48.260;10.988;2022-08-07T17:55:13;22.80;1.00
262;DHT22;114;48.260;10.988;2022-08-07T17:57:51;22.80;1.00
262;DHT22;114;48.260;10.988;2022-08-07T18:00:24;22.70;1.00
262;DHT22;114;48.260;10.988;2022-08-07T18:05:53;22.40;1.00
262;DHT22;114;48.260;10.988;2022-08-07T18:08:47;22.30;1.00
262;DHT22;114;48.260;10.988;2022-08-07T18:11:16;22.20;1.00
262;DHT22;114;48.260;10.988;2022-08-07T18:13:47;22.20;1.00
262;DHT22;114;48.260;10.988;2022-08-07T18:18:57;22.10;1.00
262;DHT22;114;48.260;10.988;2022-08-07T18:21:34;22.00;1.00
262;DHT22;114;48.260;10.988;2022-08-07T18:24:04;21.90;1.00
262;DHT22;114;48.260;10.988;2022-08-07T18:26:58;21.70;1.00
262;DHT22;114;48.260;10.988;2022-08-07T18:35:32;21.20;1.00
262;DHT22;114;48.260;10.988;2022-08-07T18:43:59;20.80;1.00
262;DHT22;114;48.260;10.988;2022-08-07T18:46:36;20.60;1.00
262;DHT22;114;48.260;10.988;2022-08-07T18:52:37;20.40;1.00
262;DHT22;114;48.260;10.988;2022-08-07T19:03:16;20.00;1.00
262;DHT22;114;48.260;10.988;2022-08-07T19:05:56;20.00;1.00
262;DHT22;114;48.260;10.988;2022-08-07T19:11:31;19.70;1.00
262;DHT22;114;48.260;10.988;2022-08-07T19:16:57;19.50;1.00
262;DHT22;114;48.260;10.988;2022-08-07T19:19:45;19.40;1.00
262;DHT22;114;48.260;10.988;2022-08-07T19:25:00;19.20;1.00
262;DHT22;114;48.260;10.988;2022-08-07T19:27:30;19.20;1.00
262;DHT22;114;48.260;10.988;2022-08-07T19:30:07;19.10;1.00
262;DHT22;114;48.260;10.988;2022-08-07T19:32:37;19.10;1.00
262;DHT22;114;48.260;10.988;2022-08-07T19:35:14;19.10;1.00
262;DHT22;114;48.260;10.988;2022-08-07T19:37:42;19.00;1.00
262;DHT22;114;48.260;10.988;2022-08-07T19:40:11;18.90;1.00
262;DHT22;114;48.260;10.988;2022-08-07T19:42:41;18.70;1.00
262;DHT22;114;48.260;10.988;2022-08-07T19:45:16;18.60;1.00
262;DHT22;114;48.260;10.988;2022-08-07T19:47:47;18.50;1.00
262;DHT22;114;48.260;10.988;2022-08-07T19:50:14;18.40;1.00
262;DHT22;114;48.260;10.988;2022-08-07T19:52:41;18.40;1.00
262;DHT22;114;48.260;10.988;2022-08-07T19:55:07;18.30;1.00
262;DHT22;114;48.260;10.988;2022-08-07T19:57:41;18.20;2.20
262;DHT22;114;48.260;10.988;2022-08-07T20:00:09;18.20;4.20
262;DHT22;114;48.260;10.988;2022-08-07T20:02:42;18.10;5.20
262;DHT22;114;48.260;10.988;2022-08-07T20:05:13;18.10;7.00
262;DHT22;114;48.260;10.988;2022-08-07T20:07:43;18.00;7.40
262;DHT22;114;48.260;10.988;2022-08-07T20:10:12;17.80;6.40
262;DHT22;114;48.260;10.988;2022-08-07T20:12:39;17.70;6.10
262;DHT22;114;48.260;10.988;2022-08-07T20:15:10;17.60;7.00
262;DHT22;114;48.260;10.988;2022-08-07T20:17:38;17.60;7.30
262;DHT22;114;48.260;10.988;2022-08-07T20:20:04;17.60;7.60
262;DHT22;114;48.260;10.988;2022-08-07T20:22:33;17.50;12.20
262;DHT22;114;48.260;10.988;2022-08-07T20:25:05;17.40;7.60
262;DHT22;114;48.260;10.988;2022-08-07T20:27:34;17.40;9.90
262;DHT22;114;48.260;10.988;2022-08-07T20:30:02;17.40;12.80
262;DHT22;114;48.260;10.988;2022-08-07T20:32:35;17.20;11.30
262;DHT22;114;48.260;10.988;2022-08-07T20:35:14;17.20;10.80
262;DHT22;114;48.260;10.988;2022-08-07T20:37:49;17.10;14.10